Time;durP1;ratioP1;P1;durP2;ratioP2;P2;SDS_P1;SDS_P2;PMS_P1;PMS_P2;Temp;Humidity;BMP_temperature;BMP_pressure;BME280_temperature;BME280_humidity;BME280_pressure;Samples;Min_cycle;Max_cycle;Signal;HPM_P1;HPM_P2
2022/03/08 00:01:26;;;;;;;9.35;4.65;;;1.60;91.50;;;;;;6757933;87;20194;-72
2022/03/08 00:11:27;;;;;;;10.70;3.97;;;1.40;93.10;;;;;;6755107;87;20640;-72
2022/03/08 00:21:28;;;;;;;8.27;4.20;;;1.00;93.80;;;;;;6756462;87;20218;-73
2022/03/08 00:31:29;;;;;;;8.10;3.85;;;1.10;94.30;;;;;;6756903;87;20192;-74
2022/03/08 00:41:29;;;;;;;9.98;3.78;;;1.20;94.00;;;;;;6756880;87;20185;-72
2022/03/08 00:51:30;;;;;;;7.37;3.47;;;1.30;93.40;;;;;;6759648;87;20188;-72
2022/03/08 01:01:31;;;;;;;6.68;3.45;;;1.40;93.30;;;;;;6766560;87;20222;-73
2022/03/08 01:11:32;;;;;;;7.40;3.55;;;1.50;93.50;;;;;;6756768;87;20699;-74
2022/03/08 01:21:36;;;;;;;8.55;3.97;;;1.60;93.30;;;;;;6761248;87;20236;-73
2022/03/08 01:31:37;;;;;;;6.37;3.83;;;1.60;93.70;;;;;;6761889;87;20205;-73
2022/03/08 01:41:38;;;;;;;9.35;3.75;;;1.40;93.90;;;;;;6757791;87;20304;-74
2022/03/08 01:51:39;;;;;;;8.95;4.03;;;1.30;94.50;;;;;;6761978;87;20179;-74
2022/03/08 02:01:40;;;;;;;7.87;3.42;;;1.10;95.20;;;;;;6759058;87;20263;-74
2022/03/08 02:11:41;;;;;;;6.25;3.50;;;1.20;95.00;;;;;;6759516;87;20203;-74
2022/03/08 02:21:45;;;;;;;7.65;4.03;;;1.20;96.00;;;;;;6756573;87;20234;-73
2022/03/08 02:31:47;;;;;;;8.13;4.00;;;1.10;96.70;;;;;;6757778;87;20203;-74
2022/03/08 02:41:48;;;;;;;6.72;3.80;;;0.80;97.90;;;;;;6758874;87;20189;-74
2022/03/08 02:51:48;;;;;;;8.15;3.70;;;0.70;98.70;;;;;;6759920;87;20180;-73
2022/03/08 03:01:49;;;;;;;6.03;3.30;;;0.60;98.90;;;;;;6755173;87;20352;-74
2022/03/08 03:11:50;;;;;;;7.80;3.50;;;0.80;98.50;;;;;;6755397;87;20628;-74
2022/03/08 03:21:50;;;;;;;6.30;3.47;;;0.90;98.10;;;;;;6757826;87;20382;-73
2022/03/08 03:31:51;;;;;;;4.82;2.75;;;1.00;97.60;;;;;;6756054;87;21002;-74
2022/03/08 03:41:51;;;;;;;8.88;3.22;;;0.90;97.20;;;;;;6756694;87;20956;-72
2022/03/08 03:51:53;;;;;;;5.57;3.30;;;1.00;97.30;;;;;;6759912;87;20165;-73
2022/03/08 04:01:54;;;;;;;7.93;3.58;;;0.90;97.40;;;;;;6759723;87;20187;-74
2022/03/08 04:11:54;;;;;;;6.12;3.17;;;0.90;97.40;;;;;;6763647;87;20197;-74
2022/03/08 04:21:55;;;;;;;9.30;3.60;;;0.90;97.60;;;;;;6763998;87;20180;-75
2022/03/08 04:31:55;;;;;;;6.90;3.40;;;0.60;98.60;;;;;;6764975;87;20180;-74
2022/03/08 04:41:56;;;;;;;6.95;3.33;;;0.80;97.90;;;;;;6763105;87;20552;-74
2022/03/08 04:51:56;;;;;;;6.45;3.25;;;0.60;98.50;;;;;;6760540;87;20196;-73
2022/03/08 05:01:57;;;;;;;9.23;3.70;;;0.70;98.30;;;;;;6761425;87;20235;-74
2022/03/08 05:11:58;;;;;;;7.35;3.97;;;0.60;98.90;;;;;;6761322;87;20336;-74
2022/03/08 05:21:58;;;;;;;9.88;3.58;;;0.70;98.60;;;;;;6752280;87;20332;-74
2022/03/08 05:31:59;;;;;;;8.57;3.65;;;0.50;98.90;;;;;;6745092;87;20211;-74
2022/03/08 05:42:00;;;;;;;7.60;4.03;;;0.20;99.90;;;;;;6748549;87;20200;-74
2022/03/08 05:52:00;;;;;;;8.75;3.85;;;-0.30;99.90;;;;;;6745033;87;20946;-74
2022/03/08 06:02:01;;;;;;;7.05;3.70;;;-0.50;99.90;;;;;;6744039;87;20216;-75
2022/03/08 06:12:02;;;;;;;9.77;3.97;;;-0.20;99.90;;;;;;6749148;88;20169;-74
2022/03/08 06:22:04;;;;;;;10.55;3.65;;;-0.40;99.90;;;;;;6750043;87;20240;-74
2022/03/08 06:32:06;;;;;;;9.48;3.83;;;0.00;99.90;;;;;;6747757;87;20191;-74
2022/03/08 06:42:07;;;;;;;7.85;3.78;;;0.20;99.90;;;;;;6748792;87;20212;-73
2022/03/08 06:52:10;;;;;;;6.72;3.80;;;0.20;99.90;;;;;;6752686;87;20671;-74
2022/03/08 07:02:11;;;;;;;7.68;3.92;;;0.60;99.90;;;;;;6751820;87;20625;-73
2022/03/08 07:12:11;;;;;;;9.63;3.80;;;0.90;99.90;;;;;;6753219;87;20220;-73
2022/03/08 07:22:12;;;;;;;6.55;3.60;;;1.20;99.70;;;;;;6748517;87;20261;-74
2022/03/08 07:32:12;;;;;;;7.10;3.25;;;1.80;98.80;;;;;;6761086;87;20338;-75
2022/03/08 07:42:13;;;;;;;8.60;3.55;;;2.30;97.30;;;;;;6753217;87;20310;-75
2022/03/08 07:52:13;;;;;;;9.98;3.42;;;2.90;96.00;;;;;;6767376;87;20739;-74
2022/03/08 08:02:14;;;;;;;7.03;4.00;;;3.30;95.20;;;;;;6753333;87;20720;-74
2022/03/08 08:12:14;;;;;;;6.80;3.40;;;3.90;94.30;;;;;;6756382;87;20310;-75
2022/03/08 08:22:15;;;;;;;8.40;3.70;;;5.00;91.40;;;;;;6754664;87;20531;-76
2022/03/08 08:32:15;;;;;;;7.70;3.70;;;6.50;87.50;;;;;;6752398;87;20321;-76
2022/03/08 08:42:16;;;;;;;6.65;3.20;;;7.20;84.30;;;;;;6756749;87;20786;-76
2022/03/08 08:52:16;;;;;;;6.28;3.70;;;6.40;83.90;;;;;;6755703;87;20250;-76
2022/03/08 09:02:17;;;;;;;9.13;3.87;;;6.60;84.80;;;;;;6753407;87;20636;-76
2022/03/08 09:12:17;;;;;;;9.75;4.20;;;6.60;83.90;;;;;;6761060;87;20185;-76
2022/03/08 09:22:18;;;;;;;5.93;2.70;;;7.10;81.90;;;;;;6757963;87;20993;-76
2022/03/08 09:32:18;;;;;;;7.20;3.03;;;6.90;80.10;;;;;;6754426;87;20246;-76
2022/03/08 09:42:20;;;;;;;5.25;2.78;;;6.90;79.90;;;;;;6753426;87;20325;-76
2022/03/08 09:52:21;;;;;;;4.65;3.10;;;7.30;79.20;;;;;;6749234;87;20329;-75
2022/03/08 10:02:25;;;;;;;7.18;3.03;;;7.90;78.00;;;;;;6749082;87;20235;-75
2022/03/08 10:12:27;;;;;;;6.00;2.85;;;7.80;77.60;;;;;;6746083;87;20188;-75
2022/03/08 10:22:32;;;;;;;6.72;3.53;;;8.00;76.90;;;;;;6757630;87;20275;-75
2022/03/08 10:32:37;;;;;;;6.20;3.60;;;8.30;77.80;;;;;;6758613;87;20225;-76
2022/03/08 10:42:40;;;;;;;6.82;3.30;;;8.60;76.30;;;;;;6753687;87;20222;-76
2022/03/08 10:52:43;;;;;;;7.25;2.95;;;8.90;74.50;;;;;;6750439;87;20200;-75
2022/03/08 11:02:50;;;;;;;7.07;2.30;;;8.80;73.80;;;;;;6755651;87;20184;-75
2022/03/08 11:12:52;;;;;;;;;;;9.50;70.80;;;;;;6748133;87;20228;-75
2022/03/08 11:22:55;;;;;;;6.53;2.33;;;9.50;69.90;;;;;;6749401;87;20214;-76
2022/03/08 11:33:11;;;;;;;5.97;2.62;;;9.90;67.30;;;;;;6754198;87;20197;-77
2022/03/08 11:43:12;;;;;;;3.67;2.10;;;10.20;65.40;;;;;;6753203;87;20208;-75
2022/03/08 11:53:18;;;;;;;4.53;2.50;;;10.20;65.10;;;;;;6752105;87;20286;-75
2022/03/08 12:03:33;;;;;;;3.50;2.03;;;10.20;64.00;;;;;;6750762;87;20201;-74
2022/03/08 12:13:36;;;;;;;4.03;2.70;;;10.70;63.80;;;;;;6751110;87;20306;-74
2022/03/08 12:23:59;;;;;;;3.75;2.45;;;10.90;62.80;;;;;;6751965;87;20196;-74
2022/03/08 12:34:09;;;;;;;4.90;2.20;;;11.20;62.10;;;;;;6754607;87;20235;-75
2022/03/08 12:44:10;;;;;;;4.93;2.90;;;11.60;61.10;;;;;;6752877;87;20715;-74
2022/03/08 12:54:11;;;;;;;5.80;3.25;;;12.10;60.80;;;;;;6756008;88;20204;-75
2022/03/08 13:04:23;;;;;;;6.03;3.10;;;13.30;58.60;;;;;;6755558;87;20632;-74
2022/03/08 13:14:24;;;;;;;5.65;3.12;;;13.20;60.10;;;;;;6755756;87;20224;-74
2022/03/08 13:24:27;;;;;;;5.65;3.22;;;14.20;56.80;;;;;;6755908;87;20196;-74
2022/03/08 13:34:29;;;;;;;4.80;3.00;;;12.70;56.30;;;;;;6761657;87;20181;-74
2022/03/08 13:44:30;;;;;;;9.32;3.58;;;13.30;56.70;;;;;;6757056;87;20610;-75
2022/03/08 13:54:41;;;;;;;4.82;2.87;;;12.90;56.80;;;;;;6744574;88;20326;-73
2022/03/08 14:04:41;;;;;;;5.25;2.95;;;12.70;57.30;;;;;;6750640;87;20180;-74
2022/03/08 14:14:42;;;;;;;6.63;3.70;;;14.20;55.60;;;;;;6754588;87;20235;-75
2022/03/08 14:24:59;;;;;;;8.05;3.70;;;13.10;56.30;;;;;;6749979;88;20681;-74
2022/03/08 14:35:16;;;;;;;7.35;3.97;;;12.60;57.90;;;;;;6753267;87;20247;-75
2022/03/08 14:45:16;;;;;;;6.60;3.75;;;13.40;56.70;;;;;;6749751;87;20394;-74
2022/03/08 14:55:19;;;;;;;5.55;3.50;;;12.80;57.00;;;;;;6754225;87;20268;-74
2022/03/08 15:05:20;;;;;;;8.52;3.95;;;12.10;58.40;;;;;;6755948;87;20188;-74
2022/03/08 15:15:20;;;;;;;5.37;3.65;;;12.70;57.70;;;;;;6748602;87;20191;-74
2022/03/08 15:25:21;;;;;;;5.97;3.43;;;12.60;57.90;;;;;;6748123;87;20210;-74
2022/03/08 15:35:22;;;;;;;4.82;3.30;;;12.40;57.20;;;;;;6747949;87;20537;-75
2022/03/08 15:45:22;;;;;;;10.20;3.78;;;12.20;58.00;;;;;;6749362;88;20576;-74
2022/03/08 15:55:23;;;;;;;8.27;3.53;;;12.10;58.00;;;;;;6749309;88;20791;-75
2022/03/08 16:05:24;;;;;;;5.28;3.10;;;12.20;57.30;;;;;;6750862;88;20639;-74
2022/03/08 16:15:24;;;;;;;6.85;3.12;;;12.00;57.80;;;;;;6752427;87;20695;-75
2022/03/08 16:25:25;;;;;;;4.70;2.40;;;11.40;57.70;;;;;;6756564;87;20247;-74
2022/03/08 16:35:26;;;;;;;5.20;2.53;;;11.00;57.30;;;;;;6740310;87;20207;-74
2022/03/08 16:45:26;;;;;;;6.78;3.28;;;10.70;57.80;;;;;;6746137;87;20753;-75
2022/03/08 16:55:28;;;;;;;4.90;2.83;;;10.70;58.30;;;;;;6749349;87;20274;-75
2022/03/08 17:05:29;;;;;;;5.57;3.05;;;10.30;58.70;;;;;;6753828;87;20558;-75
2022/03/08 17:15:30;;;;;;;6.82;3.60;;;9.80;59.40;;;;;;6751617;87;20319;-74
2022/03/08 17:25:31;;;;;;;8.10;3.53;;;9.50;60.00;;;;;;6745601;87;20196;-74
2022/03/08 17:35:33;;;;;;;7.37;3.80;;;9.20;60.80;;;;;;6759146;87;20348;-75
2022/03/08 17:45:34;;;;;;;7.35;3.75;;;9.00;61.30;;;;;;6748737;87;20196;-74
2022/03/08 17:55:34;;;;;;;6.87;3.95;;;8.80;62.00;;;;;;6750857;87;20172;-74
2022/03/08 18:05:35;;;;;;;8.33;3.93;;;8.60;62.50;;;;;;6752754;87;20776;-74
2022/03/08 18:15:36;;;;;;;7.25;3.67;;;8.40;63.30;;;;;;6757479;87;20597;-74
2022/03/08 18:25:36;;;;;;;7.00;4.03;;;8.00;64.50;;;;;;6758580;87;20286;-74
2022/03/08 18:35:37;;;;;;;6.15;3.90;;;7.90;64.90;;;;;;6753448;87;20266;-74
2022/03/08 18:45:38;;;;;;;9.48;4.40;;;7.70;65.30;;;;;;6756474;87;20203;-75
2022/03/08 18:55:39;;;;;;;11.10;4.70;;;7.40;66.00;;;;;;6753653;87;20208;-75
2022/03/08 19:05:40;;;;;;;9.80;4.50;;;7.20;66.60;;;;;;6746774;87;20196;-74
2022/03/08 19:15:42;;;;;;;9.35;4.45;;;7.10;67.50;;;;;;6748873;87;20668;-75
2022/03/08 19:25:43;;;;;;;10.63;4.93;;;6.90;67.60;;;;;;6745132;87;20282;-74
2022/03/08 19:35:44;;;;;;;11.63;5.40;;;6.70;68.40;;;;;;6755828;87;20825;-75
2022/03/08 19:45:44;;;;;;;8.35;4.72;;;6.60;68.60;;;;;;6754497;87;20235;-75
2022/03/08 19:55:45;;;;;;;10.70;4.57;;;6.50;68.30;;;;;;6751764;87;20228;-75
2022/03/08 20:05:46;;;;;;;11.25;5.85;;;6.20;69.70;;;;;;6744189;87;20217;-75
2022/03/08 20:15:48;;;;;;;12.82;5.12;;;5.40;72.60;;;;;;6744271;87;20181;-75
2022/03/08 20:25:50;;;;;;;12.43;4.82;;;5.20;72.80;;;;;;6744493;87;20193;-74
2022/03/08 20:35:51;;;;;;;12.80;5.10;;;5.10;72.40;;;;;;6742288;87;20350;-75
2022/03/08 20:45:55;;;;;;;10.10;4.55;;;5.00;73.80;;;;;;6752605;87;20218;-76
2022/03/08 20:55:57;;;;;;;14.30;5.00;;;5.50;70.20;;;;;;6759351;87;21071;-76
2022/03/08 21:05:57;;;;;;;10.45;5.35;;;5.50;71.90;;;;;;6753589;87;20235;-74
2022/03/08 21:15:58;;;;;;;11.80;4.80;;;4.70;75.00;;;;;;6752385;88;20667;-74
2022/03/08 21:26:02;;;;;;;9.95;4.20;;;5.20;71.40;;;;;;6745114;87;20720;-75
2022/03/08 21:36:06;;;;;;;12.37;4.87;;;5.20;71.30;;;;;;6745149;87;20213;-75
2022/03/08 21:46:07;;;;;;;11.10;5.32;;;5.50;71.90;;;;;;6750325;88;20251;-75
2022/03/08 21:56:08;;;;;;;11.50;5.43;;;4.80;74.10;;;;;;6747763;88;20270;-75
2022/03/08 22:06:08;;;;;;;12.68;5.70;;;4.20;77.00;;;;;;6747534;87;20200;-76
2022/03/08 22:16:09;;;;;;;12.73;5.62;;;3.70;85.70;;;;;;6756513;87;20203;-75
2022/03/08 22:26:11;;;;;;;11.15;5.50;;;3.40;86.00;;;;;;6740750;88;21364;-75
2022/03/08 22:36:11;;;;;;;14.87;5.72;;;3.60;85.70;;;;;;6756275;88;20302;-74
2022/03/08 22:46:12;;;;;;;12.73;6.18;;;3.30;86.70;;;;;;6757612;87;20184;-74
2022/03/08 22:56:13;;;;;;;10.88;6.03;;;2.90;86.60;;;;;;6754140;87;20253;-74
2022/03/08 23:06:13;;;;;;;12.00;5.60;;;2.60;89.50;;;;;;6748529;88;20209;-74
2022/03/08 23:16:16;;;;;;;11.10;5.35;;;2.40;90.30;;;;;;6749166;88;20780;-75
2022/03/08 23:26:37;;;;;;;12.93;5.50;;;2.70;87.60;;;;;;6768628;77;20180;-83
2022/03/08 23:36:38;;;;;;;12.73;5.18;;;3.20;85.90;;;;;;6731040;88;20189;-83
2022/03/08 23:46:39;;;;;;;11.20;5.57;;;3.30;85.40;;;;;;6731077;88;20174;-83
2022/03/08 23:56:40;;;;;;;10.75;4.95;;;3.10;89.60;;;;;;6697184;88;20234;-85
